Portada
METAR-TAF:

METAR-TAF

Aeroports :

Jerez de la Frontera, Espanya

latitud: 36-45N, longitud: 006-04W, altitud: 27 m

Observació

L'informe es va fer fa 15 minuts, a les 11:00 UTC
Vent 1 kt amb direcció variable
Temperatura 14°C
Humitat 72%
Pressió 1030 hPa
Visibilitat 10 km o més
sense núvols per sota de 1500 mi sense presència de cumulonimbus.

METAR: LEJR 151100Z VRB01KT CAVOK 14/09 Q1030

Hora: 12:15 (11:15 UTC)

Pronòstic

L'informe es va fer fa 6 hores i 15 minuts, a les 05:00 UTC
Pronòstic vàlid del 15 a les 06 UTC al 16 a les 06 UTC
Vent 4 kt del Nord
Visibilitat 10 km o més
sense núvols per sota de 1500 mi sense presència de cumulonimbus.

TAF: LEJR 150500Z 1506/1606 01004KT CAVOK TX17/1515Z TN04/1507Z

Observacions i pronòstics meteorològics de més de 4000 aeroports (METAR i TAF).

Les estacions disponibles són els punts grocs i vermells al mapa.

Posi el ratolí al punt desitjat per veure el nom de l'estació.

Feu clic per veure les observacions i els pronòstics meteorològics.

Per canviar el mapa: feu clic els botons verds amb una creu de color negre per apropar; al botó verd amb un guió per allunyar la imatge; o en les fletxes verdes per a mapes adjacents.


METAR-TAF: